sensor_id;sensor_type;location;lat;lon;timestamp;temperature;humidity
70820;DHT22;58439;51.046;13.692;2022-10-18T00:01:58;14.20;99.90
70820;DHT22;58439;51.046;13.692;2022-10-18T00:04:26;14.10;99.90
70820;DHT22;58439;51.046;13.692;2022-10-18T00:06:54;14.10;99.90
70820;DHT22;58439;51.046;13.692;2022-10-18T00:09:21;14.10;99.90
70820;DHT22;58439;51.046;13.692;2022-10-18T00:11:49;14.10;99.90
70820;DHT22;58439;51.046;13.692;2022-10-18T00:14:17;14.10;99.90
70820;DHT22;58439;51.046;13.692;2022-10-18T00:16:45;14.20;99.90
70820;DHT22;58439;51.046;13.692;2022-10-18T00:19:12;14.10;99.90
70820;DHT22;58439;51.046;13.692;2022-10-18T00:21:40;14.10;99.90
70820;DHT22;58439;51.046;13.692;2022-10-18T00:24:10;14.10;99.90
70820;DHT22;58439;51.046;13.692;2022-10-18T00:26:39;14.00;99.90
70820;DHT22;58439;51.046;13.692;2022-10-18T00:29:09;14.00;99.90
70820;DHT22;58439;51.046;13.692;2022-10-18T00:31:41;13.90;99.90
70820;DHT22;58439;51.046;13.692;2022-10-18T00:34:22;13.90;99.90
70820;DHT22;58439;51.046;13.692;2022-10-18T00:36:50;13.90;99.90
70820;DHT22;58439;51.046;13.692;2022-10-18T00:39:20;13.80;99.90
70820;DHT22;58439;51.046;13.692;2022-10-18T00:41:49;13.80;99.90
70820;DHT22;58439;51.046;13.692;2022-10-18T00:46:46;13.70;99.90
70820;DHT22;58439;51.046;13.692;2022-10-18T00:49:19;13.70;99.90
70820;DHT22;58439;51.046;13.692;2022-10-18T00:51:55;13.70;99.90
70820;DHT22;58439;51.046;13.692;2022-10-18T00:54:29;13.60;99.90
70820;DHT22;58439;51.046;13.692;2022-10-18T00:56:58;13.60;99.90
70820;DHT22;58439;51.046;13.692;2022-10-18T00:59:28;13.60;99.90
70820;DHT22;58439;51.046;13.692;2022-10-18T01:01:58;13.60;99.90
70820;DHT22;58439;51.046;13.692;2022-10-18T01:04:27;13.50;99.90
70820;DHT22;58439;51.046;13.692;2022-10-18T01:07:04;13.50;99.90
70820;DHT22;58439;51.046;13.692;2022-10-18T01:09:57;13.40;99.90
70820;DHT22;58439;51.046;13.692;2022-10-18T01:32:34;13.10;99.90
70820;DHT22;58439;51.046;13.692;2022-10-18T01:35:11;13.10;99.90
70820;DHT22;58439;51.046;13.692;2022-10-18T01:37:46;13.00;99.90
70820;DHT22;58439;51.046;13.692;2022-10-18T01:40:18;13.00;99.90
70820;DHT22;58439;51.046;13.692;2022-10-18T01:42:49;13.00;99.90
70820;DHT22;58439;51.046;13.692;2022-10-18T01:45:18;13.00;99.90
70820;DHT22;58439;51.046;13.692;2022-10-18T01:47:49;12.90;99.90
70820;DHT22;58439;51.046;13.692;2022-10-18T01:50:30;12.90;99.90
70820;DHT22;58439;51.046;13.692;2022-10-18T01:53:27;12.90;99.90
70820;DHT22;58439;51.046;13.692;2022-10-18T02:00:40;12.80;99.90
70820;DHT22;58439;51.046;13.692;2022-10-18T02:03:15;12.80;99.90
70820;DHT22;58439;51.046;13.692;2022-10-18T02:05:53;12.80;99.90
70820;DHT22;58439;51.046;13.692;2022-10-18T02:11:08;12.70;99.90
70820;DHT22;58439;51.046;13.692;2022-10-18T02:14:02;12.70;99.90
70820;DHT22;58439;51.046;13.692;2022-10-18T02:16:46;12.70;99.90
70820;DHT22;58439;51.046;13.692;2022-10-18T02:19:19;12.60;99.90
70820;DHT22;58439;51.046;13.692;2022-10-18T02:21:54;12.60;99.90
70820;DHT22;58439;51.046;13.692;2022-10-18T02:24:29;12.60;99.90
70820;DHT22;58439;51.046;13.692;2022-10-18T02:27:01;12.50;99.90
70820;DHT22;58439;51.046;13.692;2022-10-18T02:29:31;12.50;99.90
70820;DHT22;58439;51.046;13.692;2022-10-18T02:35:28;12.60;99.90
70820;DHT22;58439;51.046;13.692;2022-10-18T02:38:03;12.60;99.90
70820;DHT22;58439;51.046;13.692;2022-10-18T02:40:34;12.50;99.90
70820;DHT22;58439;51.046;13.692;2022-10-18T02:43:05;12.50;99.90
70820;DHT22;58439;51.046;13.692;2022-10-18T02:45:33;12.50;99.90
70820;DHT22;58439;51.046;13.692;2022-10-18T02:48:09;12.50;99.90
70820;DHT22;58439;51.046;13.692;2022-10-18T02:50:46;12.50;99.90
70820;DHT22;58439;51.046;13.692;2022-10-18T02:53:15;12.40;99.90
70820;DHT22;58439;51.046;13.692;2022-10-18T02:55:43;12.40;99.90
70820;DHT22;58439;51.046;13.692;2022-10-18T02:58:12;12.40;99.90
70820;DHT22;58439;51.046;13.692;2022-10-18T03:00:41;12.40;99.90
70820;DHT22;58439;51.046;13.692;2022-10-18T03:03:09;12.40;99.90
70820;DHT22;58439;51.046;13.692;2022-10-18T03:05:37;12.40;99.90
70820;DHT22;58439;51.046;13.692;2022-10-18T03:17:48;12.40;99.90
70820;DHT22;58439;51.046;13.692;2022-10-18T03:24:27;12.30;99.90
70820;DHT22;58439;51.046;13.692;2022-10-18T03:26:57;12.30;99.90
70820;DHT22;58439;51.046;13.692;2022-10-18T03:29:25;12.30;99.90
70820;DHT22;58439;51.046;13.692;2022-10-18T03:31:53;12.20;99.90
70820;DHT22;58439;51.046;13.692;2022-10-18T03:34:20;12.20;99.90
70820;DHT22;58439;51.046;13.692;2022-10-18T03:36:48;12.20;99.90
70820;DHT22;58439;51.046;13.692;2022-10-18T03:39:16;12.20;99.90
70820;DHT22;58439;51.046;13.692;2022-10-18T03:41:44;12.20;99.90
70820;DHT22;58439;51.046;13.692;2022-10-18T03:44:11;12.20;99.90
70820;DHT22;58439;51.046;13.692;2022-10-18T03:46:39;12.30;99.90
70820;DHT22;58439;51.046;13.692;2022-10-18T03:49:06;12.30;99.90
70820;DHT22;58439;51.046;13.692;2022-10-18T03:51:33;12.30;99.90
70820;DHT22;58439;51.046;13.692;2022-10-18T03:54:01;12.30;99.90
70820;DHT22;58439;51.046;13.692;2022-10-18T03:56:28;12.30;99.90
70820;DHT22;58439;51.046;13.692;2022-10-18T03:58:55;12.40;99.90
70820;DHT22;58439;51.046;13.692;2022-10-18T04:01:23;12.40;99.90
70820;DHT22;58439;51.046;13.692;2022-10-18T04:03:50;12.50;99.90
70820;DHT22;58439;51.046;13.692;2022-10-18T04:06:17;12.60;99.90
70820;DHT22;58439;51.046;13.692;2022-10-18T04:08:45;12.60;99.90
70820;DHT22;58439;51.046;13.692;2022-10-18T04:11:12;12.70;99.90
70820;DHT22;58439;51.046;13.692;2022-10-18T04:13:42;12.80;99.90
70820;DHT22;58439;51.046;13.692;2022-10-18T04:16:11;12.90;99.90
70820;DHT22;58439;51.046;13.692;2022-10-18T04:18:38;12.90;99.90
70820;DHT22;58439;51.046;13.692;2022-10-18T04:21:16;13.00;99.90
70820;DHT22;58439;51.046;13.692;2022-10-18T04:23:48;13.10;99.90
70820;DHT22;58439;51.046;13.692;2022-10-18T04:26:16;13.10;99.90
70820;DHT22;58439;51.046;13.692;2022-10-18T04:28:43;13.10;99.90
70820;DHT22;58439;51.046;13.692;2022-10-18T04:31:11;13.10;99.90
70820;DHT22;58439;51.046;13.692;2022-10-18T04:33:38;13.20;99.90
70820;DHT22;58439;51.046;13.692;2022-10-18T04:36:08;13.20;99.90
70820;DHT22;58439;51.046;13.692;2022-10-18T04:38:41;13.30;99.90
70820;DHT22;58439;51.046;13.692;2022-10-18T04:41:08;13.40;99.90
70820;DHT22;58439;51.046;13.692;2022-10-18T04:43:38;13.40;99.90
70820;DHT22;58439;51.046;13.692;2022-10-18T04:46:05;13.40;99.90
70820;DHT22;58439;51.046;13.692;2022-10-18T04:48:32;13.50;99.90
70820;DHT22;58439;51.046;13.692;2022-10-18T04:51:00;13.50;99.90
70820;DHT22;58439;51.046;13.692;2022-10-18T04:53:27;13.60;99.90
70820;DHT22;58439;51.046;13.692;2022-10-18T04:55:54;13.60;99.90
70820;DHT22;58439;51.046;13.692;2022-10-18T04:58:21;13.60;99.90
70820;DHT22;58439;51.046;13.692;2022-10-18T05:00:49;13.60;99.90
70820;DHT22;58439;51.046;13.692;2022-10-18T05:03:17;13.70;99.90
70820;DHT22;58439;51.046;13.692;2022-10-18T05:05:44;13.70;99.90
70820;DHT22;58439;51.046;13.692;2022-10-18T05:08:30;13.80;99.90
70820;DHT22;58439;51.046;13.692;2022-10-18T05:10:59;13.80;99.90
70820;DHT22;58439;51.046;13.692;2022-10-18T05:13:27;13.90;99.90
70820;DHT22;58439;51.046;13.692;2022-10-18T05:15:54;13.90;99.90
70820;DHT22;58439;51.046;13.692;2022-10-18T05:18:21;14.00;99.90
70820;DHT22;58439;51.046;13.692;2022-10-18T05:20:48;14.00;99.90
70820;DHT22;58439;51.046;13.692;2022-10-18T05:23:16;14.10;99.90
70820;DHT22;58439;51.046;13.692;2022-10-18T05:25:43;14.10;99.90
70820;DHT22;58439;51.046;13.692;2022-10-18T05:28:10;14.10;99.90
70820;DHT22;58439;51.046;13.692;2022-10-18T05:31:03;14.10;99.90
70820;DHT22;58439;51.046;13.692;2022-10-18T05:33:31;14.20;99.90
70820;DHT22;58439;51.046;13.692;2022-10-18T05:35:59;14.20;99.90
70820;DHT22;58439;51.046;13.692;2022-10-18T05:38:26;14.20;99.90
70820;DHT22;58439;51.046;13.692;2022-10-18T05:40:53;14.20;99.90
70820;DHT22;58439;51.046;13.692;2022-10-18T05:43:20;14.20;99.90
70820;DHT22;58439;51.046;13.692;2022-10-18T05:45:49;14.30;99.90
70820;DHT22;58439;51.046;13.692;2022-10-18T05:48:17;14.30;99.90
70820;DHT22;58439;51.046;13.692;2022-10-18T05:50:45;14.30;99.90
70820;DHT22;58439;51.046;13.692;2022-10-18T05:53:12;14.30;99.90
70820;DHT22;58439;51.046;13.692;2022-10-18T05:56:03;14.30;99.90
70820;DHT22;58439;51.046;13.692;2022-10-18T05:58:32;14.30;99.90
70820;DHT22;58439;51.046;13.692;2022-10-18T06:01:01;14.30;99.90
70820;DHT22;58439;51.046;13.692;2022-10-18T06:03:29;14.30;99.90
70820;DHT22;58439;51.046;13.692;2022-10-18T06:06:08;14.20;99.90
70820;DHT22;58439;51.046;13.692;2022-10-18T06:08:39;14.20;99.90
70820;DHT22;58439;51.046;13.692;2022-10-18T06:11:14;14.20;99.90
70820;DHT22;58439;51.046;13.692;2022-10-18T06:13:43;14.10;99.90
70820;DHT22;58439;51.046;13.692;2022-10-18T06:16:13;14.10;99.90
70820;DHT22;58439;51.046;13.692;2022-10-18T06:18:41;14.20;99.90
70820;DHT22;58439;51.046;13.692;2022-10-18T06:21:09;14.20;99.90
70820;DHT22;58439;51.046;13.692;2022-10-18T06:23:36;14.20;99.90
70820;DHT22;58439;51.046;13.692;2022-10-18T06:26:06;14.30;99.90
70820;DHT22;58439;51.046;13.692;2022-10-18T06:28:35;14.30;99.90
70820;DHT22;58439;51.046;13.692;2022-10-18T06:31:04;14.30;99.90
70820;DHT22;58439;51.046;13.692;2022-10-18T06:33:40;14.30;99.90
70820;DHT22;58439;51.046;13.692;2022-10-18T06:36:13;14.40;99.90
70820;DHT22;58439;51.046;13.692;2022-10-18T06:38:41;14.30;99.90
70820;DHT22;58439;51.046;13.692;2022-10-18T06:41:09;14.30;99.90
70820;DHT22;58439;51.046;13.692;2022-10-18T06:43:39;14.30;99.90
70820;DHT22;58439;51.046;13.692;2022-10-18T06:46:08;14.30;99.80
70820;DHT22;58439;51.046;13.692;2022-10-18T06:48:37;14.40;99.90
70820;DHT22;58439;51.046;13.692;2022-10-18T06:51:05;14.40;99.90
70820;DHT22;58439;51.046;13.692;2022-10-18T06:53:42;14.50;99.90
70820;DHT22;58439;51.046;13.692;2022-10-18T06:56:42;14.60;99.90
70820;DHT22;58439;51.046;13.692;2022-10-18T06:59:09;14.60;99.70
70820;DHT22;58439;51.046;13.692;2022-10-18T07:01:36;14.70;99.50
70820;DHT22;58439;51.046;13.692;2022-10-18T07:04:04;14.80;99.40
70820;DHT22;58439;51.046;13.692;2022-10-18T07:06:31;14.80;99.10
70820;DHT22;58439;51.046;13.692;2022-10-18T07:08:58;14.90;98.90
70820;DHT22;58439;51.046;13.692;2022-10-18T07:11:26;14.90;98.60
70820;DHT22;58439;51.046;13.692;2022-10-18T07:14:03;14.90;98.50
70820;DHT22;58439;51.046;13.692;2022-10-18T07:16:32;14.90;98.40
70820;DHT22;58439;51.046;13.692;2022-10-18T07:18:59;14.90;98.40
70820;DHT22;58439;51.046;13.692;2022-10-18T07:21:27;14.90;98.40
70820;DHT22;58439;51.046;13.692;2022-10-18T07:23:57;15.00;98.70
70820;DHT22;58439;51.046;13.692;2022-10-18T07:26:27;15.00;98.10
70820;DHT22;58439;51.046;13.692;2022-10-18T07:28:59;15.10;97.90
70820;DHT22;58439;51.046;13.692;2022-10-18T07:31:47;15.10;97.60
70820;DHT22;58439;51.046;13.692;2022-10-18T07:34:15;15.20;97.30
70820;DHT22;58439;51.046;13.692;2022-10-18T07:36:42;15.30;97.30
70820;DHT22;58439;51.046;13.692;2022-10-18T07:39:12;15.30;97.00
70820;DHT22;58439;51.046;13.692;2022-10-18T07:41:42;15.40;96.80
70820;DHT22;58439;51.046;13.692;2022-10-18T07:44:23;15.40;96.40
70820;DHT22;58439;51.046;13.692;2022-10-18T07:47:04;15.50;96.20
70820;DHT22;58439;51.046;13.692;2022-10-18T07:50:14;15.50;95.90
70820;DHT22;58439;51.046;13.692;2022-10-18T07:52:43;15.50;95.80
70820;DHT22;58439;51.046;13.692;2022-10-18T07:55:10;15.60;95.70
70820;DHT22;58439;51.046;13.692;2022-10-18T07:57:37;15.60;95.80
70820;DHT22;58439;51.046;13.692;2022-10-18T08:00:05;15.70;95.40
70820;DHT22;58439;51.046;13.692;2022-10-18T08:02:37;15.80;95.20
70820;DHT22;58439;51.046;13.692;2022-10-18T08:05:04;15.80;94.90
70820;DHT22;58439;51.046;13.692;2022-10-18T08:07:32;15.80;94.70
70820;DHT22;58439;51.046;13.692;2022-10-18T08:10:00;15.70;94.40
70820;DHT22;58439;51.046;13.692;2022-10-18T08:12:28;15.60;94.50
70820;DHT22;58439;51.046;13.692;2022-10-18T08:14:55;15.50;94.90
70820;DHT22;58439;51.046;13.692;2022-10-18T08:17:22;15.50;95.00
70820;DHT22;58439;51.046;13.692;2022-10-18T08:19:49;15.40;94.90
70820;DHT22;58439;51.046;13.692;2022-10-18T08:22:37;15.40;95.10
70820;DHT22;58439;51.046;13.692;2022-10-18T08:25:11;15.40;95.40
70820;DHT22;58439;51.046;13.692;2022-10-18T08:27:47;15.50;95.00
70820;DHT22;58439;51.046;13.692;2022-10-18T08:30:15;15.60;94.80
70820;DHT22;58439;51.046;13.692;2022-10-18T08:32:42;15.60;94.50
70820;DHT22;58439;51.046;13.692;2022-10-18T08:35:09;15.70;94.40
70820;DHT22;58439;51.046;13.692;2022-10-18T08:37:37;15.70;94.40
70820;DHT22;58439;51.046;13.692;2022-10-18T08:40:04;15.70;94.30
70820;DHT22;58439;51.046;13.692;2022-10-18T08:45:18;15.80;94.10
70820;DHT22;58439;51.046;13.692;2022-10-18T08:48:04;15.80;93.90
70820;DHT22;58439;51.046;13.692;2022-10-18T08:50:35;15.90;93.60
70820;DHT22;58439;51.046;13.692;2022-10-18T08:53:17;15.80;93.60
70820;DHT22;58439;51.046;13.692;2022-10-18T08:55:59;15.80;93.60
70820;DHT22;58439;51.046;13.692;2022-10-18T08:58:42;15.80;93.70
70820;DHT22;58439;51.046;13.692;2022-10-18T09:01:34;15.70;93.80
70820;DHT22;58439;51.046;13.692;2022-10-18T09:07:22;15.80;93.80
70820;DHT22;58439;51.046;13.692;2022-10-18T09:16:16;15.90;93.90
70820;DHT22;58439;51.046;13.692;2022-10-18T09:25:43;16.00;93.80
70820;DHT22;58439;51.046;13.692;2022-10-18T09:37:11;16.30;92.90
70820;DHT22;58439;51.046;13.692;2022-10-18T09:49:59;16.50;92.80
70820;DHT22;58439;51.046;13.692;2022-10-18T10:03:54;16.70;92.40
70820;DHT22;58439;51.046;13.692;2022-10-18T10:08:11;17.00;92.20
70820;DHT22;58439;51.046;13.692;2022-10-18T10:10:44;17.30;91.30
70820;DHT22;58439;51.046;13.692;2022-10-18T10:13:18;17.70;90.90
70820;DHT22;58439;51.046;13.692;2022-10-18T10:15:59;17.90;89.00
70820;DHT22;58439;51.046;13.692;2022-10-18T10:18:33;17.90;89.20
70820;DHT22;58439;51.046;13.692;2022-10-18T10:36:31;17.70;88.20
70820;DHT22;58439;51.046;13.692;2022-10-18T10:39:14;17.70;88.10
70820;DHT22;58439;51.046;13.692;2022-10-18T10:41:56;17.60;88.40
70820;DHT22;58439;51.046;13.692;2022-10-18T10:44:29;17.40;88.90
70820;DHT22;58439;51.046;13.692;2022-10-18T10:47:05;17.20;89.80
70820;DHT22;58439;51.046;13.692;2022-10-18T10:54:55;16.70;91.70
70820;DHT22;58439;51.046;13.692;2022-10-18T10:57:48;16.50;93.30
70820;DHT22;58439;51.046;13.692;2022-10-18T11:00:38;16.50;94.30
70820;DHT22;58439;51.046;13.692;2022-10-18T11:04:52;16.30;95.20
70820;DHT22;58439;51.046;13.692;2022-10-18T11:08:01;16.30;96.30
70820;DHT22;58439;51.046;13.692;2022-10-18T11:10:33;16.20;96.90
70820;DHT22;58439;51.046;13.692;2022-10-18T11:16:32;16.10;97.30
70820;DHT22;58439;51.046;13.692;2022-10-18T11:22:39;16.00;98.30
70820;DHT22;58439;51.046;13.692;2022-10-18T11:25:37;16.00;98.90
70820;DHT22;58439;51.046;13.692;2022-10-18T11:31:40;16.00;99.40
70820;DHT22;58439;51.046;13.692;2022-10-18T11:47:03;16.10;99.50
70820;DHT22;58439;51.046;13.692;2022-10-18T11:56:08;16.00;99.90
70820;DHT22;58439;51.046;13.692;2022-10-18T11:59:42;16.00;99.90
70820;DHT22;58439;51.046;13.692;2022-10-18T12:06:17;15.90;99.90
70820;DHT22;58439;51.046;13.692;2022-10-18T12:08:58;15.80;99.90
70820;DHT22;58439;51.046;13.692;2022-10-18T12:11:45;15.80;99.90
70820;DHT22;58439;51.046;13.692;2022-10-18T12:14:47;15.80;99.90
70820;DHT22;58439;51.046;13.692;2022-10-18T12:17:38;15.70;99.90
70820;DHT22;58439;51.046;13.692;2022-10-18T12:20:22;15.70;99.90
70820;DHT22;58439;51.046;13.692;2022-10-18T12:25:28;15.80;99.90
70820;DHT22;58439;51.046;13.692;2022-10-18T12:28:01;15.80;99.90
70820;DHT22;58439;51.046;13.692;2022-10-18T12:33:09;15.70;99.90
70820;DHT22;58439;51.046;13.692;2022-10-18T12:38:42;15.70;99.90
70820;DHT22;58439;51.046;13.692;2022-10-18T12:41:30;15.70;99.90
70820;DHT22;58439;51.046;13.692;2022-10-18T12:46:48;15.80;99.90
70820;DHT22;58439;51.046;13.692;2022-10-18T12:49:36;15.80;99.90
70820;DHT22;58439;51.046;13.692;2022-10-18T12:52:21;15.90;99.90
70820;DHT22;58439;51.046;13.692;2022-10-18T12:55:05;15.90;99.90
70820;DHT22;58439;51.046;13.692;2022-10-18T13:16:58;15.80;99.90
70820;DHT22;58439;51.046;13.692;2022-10-18T13:29:00;15.90;99.90
70820;DHT22;58439;51.046;13.692;2022-10-18T13:34:37;15.90;99.90
70820;DHT22;58439;51.046;13.692;2022-10-18T13:39:36;15.90;99.90
70820;DHT22;58439;51.046;13.692;2022-10-18T13:44:42;15.90;99.90
70820;DHT22;58439;51.046;13.692;2022-10-18T13:47:15;15.90;99.90
70820;DHT22;58439;51.046;13.692;2022-10-18T13:50:23;15.90;99.90
70820;DHT22;58439;51.046;13.692;2022-10-18T13:59:28;15.90;99.90
70820;DHT22;58439;51.046;13.692;2022-10-18T14:13:46;16.00;99.90
70820;DHT22;58439;51.046;13.692;2022-10-18T14:16:34;16.00;99.90
70820;DHT22;58439;51.046;13.692;2022-10-18T14:19:43;16.20;99.90
70820;DHT22;58439;51.046;13.692;2022-10-18T14:22:35;16.30;99.90
70820;DHT22;58439;51.046;13.692;2022-10-18T14:25:29;16.50;99.90
70820;DHT22;58439;51.046;13.692;2022-10-18T14:28:16;16.70;99.90
70820;DHT22;58439;51.046;13.692;2022-10-18T14:31:04;16.80;99.90
70820;DHT22;58439;51.046;13.692;2022-10-18T14:41:53;17.10;99.90
70820;DHT22;58439;51.046;13.692;2022-10-18T14:51:10;16.80;99.70
70820;DHT22;58439;51.046;13.692;2022-10-18T15:04:46;16.10;99.90
70820;DHT22;58439;51.046;13.692;2022-10-18T15:08:04;16.00;99.90
70820;DHT22;58439;51.046;13.692;2022-10-18T15:15:28;15.80;99.90
70820;DHT22;58439;51.046;13.692;2022-10-18T15:29:25;15.70;99.90
70820;DHT22;58439;51.046;13.692;2022-10-18T15:36:33;16.10;99.90
70820;DHT22;58439;51.046;13.692;2022-10-18T15:45:29;16.00;99.90
70820;DHT22;58439;51.046;13.692;2022-10-18T15:48:40;15.90;99.90
70820;DHT22;58439;51.046;13.692;2022-10-18T15:51:47;15.80;99.90
70820;DHT22;58439;51.046;13.692;2022-10-18T15:54:41;15.70;99.90
70820;DHT22;58439;51.046;13.692;2022-10-18T15:57:09;15.50;99.90
70820;DHT22;58439;51.046;13.692;2022-10-18T15:59:47;15.40;99.90
70820;DHT22;58439;51.046;13.692;2022-10-18T16:02:18;15.30;99.90
70820;DHT22;58439;51.046;13.692;2022-10-18T16:04:55;15.30;99.90
70820;DHT22;58439;51.046;13.692;2022-10-18T16:07:53;15.20;99.90
70820;DHT22;58439;51.046;13.692;2022-10-18T16:10:21;15.10;99.90
70820;DHT22;58439;51.046;13.692;2022-10-18T16:12:48;15.00;99.90
70820;DHT22;58439;51.046;13.692;2022-10-18T16:15:15;14.90;99.90
70820;DHT22;58439;51.046;13.692;2022-10-18T16:17:42;14.90;99.90
70820;DHT22;58439;51.046;13.692;2022-10-18T16:20:21;14.80;99.90
70820;DHT22;58439;51.046;13.692;2022-10-18T16:22:57;14.80;99.90
70820;DHT22;58439;51.046;13.692;2022-10-18T16:25:44;14.80;99.90
70820;DHT22;58439;51.046;13.692;2022-10-18T16:28:20;14.80;99.90
70820;DHT22;58439;51.046;13.692;2022-10-18T16:31:03;14.80;99.90
70820;DHT22;58439;51.046;13.692;2022-10-18T16:33:31;14.70;99.90
70820;DHT22;58439;51.046;13.692;2022-10-18T16:35:58;14.70;99.90
70820;DHT22;58439;51.046;13.692;2022-10-18T16:38:34;14.80;99.90
70820;DHT22;58439;51.046;13.692;2022-10-18T16:41:04;14.70;99.90
70820;DHT22;58439;51.046;13.692;2022-10-18T16:43:34;14.70;99.90
70820;DHT22;58439;51.046;13.692;2022-10-18T16:46:02;14.70;99.90
70820;DHT22;58439;51.046;13.692;2022-10-18T16:48:30;14.60;99.90
70820;DHT22;58439;51.046;13.692;2022-10-18T16:50:58;14.60;99.90
70820;DHT22;58439;51.046;13.692;2022-10-18T16:53:25;14.60;99.90
70820;DHT22;58439;51.046;13.692;2022-10-18T16:55:56;14.70;99.90
70820;DHT22;58439;51.046;13.692;2022-10-18T16:58:28;14.70;99.90
70820;DHT22;58439;51.046;13.692;2022-10-18T17:01:35;14.70;99.90
70820;DHT22;58439;51.046;13.692;2022-10-18T17:04:34;14.70;99.90
70820;DHT22;58439;51.046;13.692;2022-10-18T17:07:22;14.70;99.90
70820;DHT22;58439;51.046;13.692;2022-10-18T17:09:50;14.80;99.90
70820;DHT22;58439;51.046;13.692;2022-10-18T17:12:18;14.80;99.90
70820;DHT22;58439;51.046;13.692;2022-10-18T17:14:45;14.80;99.90
70820;DHT22;58439;51.046;13.692;2022-10-18T17:17:12;14.80;99.90
70820;DHT22;58439;51.046;13.692;2022-10-18T17:19:39;14.80;99.90
70820;DHT22;58439;51.046;13.692;2022-10-18T17:22:07;14.80;99.90
70820;DHT22;58439;51.046;13.692;2022-10-18T17:24:34;14.70;99.90
70820;DHT22;58439;51.046;13.692;2022-10-18T17:27:02;14.60;99.90
70820;DHT22;58439;51.046;13.692;2022-10-18T17:29:29;14.50;99.90
70820;DHT22;58439;51.046;13.692;2022-10-18T17:31:57;14.50;99.90
70820;DHT22;58439;51.046;13.692;2022-10-18T17:34:24;14.50;99.90
70820;DHT22;58439;51.046;13.692;2022-10-18T17:36:52;14.40;99.90
70820;DHT22;58439;51.046;13.692;2022-10-18T17:39:20;14.40;99.90
70820;DHT22;58439;51.046;13.692;2022-10-18T17:41:47;14.30;99.90
70820;DHT22;58439;51.046;13.692;2022-10-18T17:44:14;14.30;99.90
70820;DHT22;58439;51.046;13.692;2022-10-18T17:46:42;14.20;99.90
70820;DHT22;58439;51.046;13.692;2022-10-18T17:49:09;14.10;99.90
70820;DHT22;58439;51.046;13.692;2022-10-18T17:51:36;14.00;99.90
70820;DHT22;58439;51.046;13.692;2022-10-18T17:54:04;14.00;99.90
70820;DHT22;58439;51.046;13.692;2022-10-18T17:56:34;13.90;99.90
70820;DHT22;58439;51.046;13.692;2022-10-18T17:59:01;13.90;99.90
70820;DHT22;58439;51.046;13.692;2022-10-18T18:01:29;13.90;99.90
70820;DHT22;58439;51.046;13.692;2022-10-18T18:04:01;14.00;99.90
70820;DHT22;58439;51.046;13.692;2022-10-18T18:06:33;14.00;99.90
70820;DHT22;58439;51.046;13.692;2022-10-18T18:09:08;14.10;99.90
70820;DHT22;58439;51.046;13.692;2022-10-18T18:11:38;14.10;99.90
70820;DHT22;58439;51.046;13.692;2022-10-18T18:14:10;14.20;99.90
70820;DHT22;58439;51.046;13.692;2022-10-18T18:16:39;14.20;99.90
70820;DHT22;58439;51.046;13.692;2022-10-18T18:19:09;14.30;99.90
70820;DHT22;58439;51.046;13.692;2022-10-18T18:21:37;14.40;99.90
70820;DHT22;58439;51.046;13.692;2022-10-18T18:24:06;14.40;99.90
70820;DHT22;58439;51.046;13.692;2022-10-18T18:26:34;14.40;99.90
70820;DHT22;58439;51.046;13.692;2022-10-18T18:29:02;14.40;99.90
70820;DHT22;58439;51.046;13.692;2022-10-18T18:31:31;14.40;99.90
70820;DHT22;58439;51.046;13.692;2022-10-18T18:34:06;14.50;99.90
70820;DHT22;58439;51.046;13.692;2022-10-18T18:36:34;14.50;99.90
70820;DHT22;58439;51.046;13.692;2022-10-18T18:39:02;14.50;99.90
70820;DHT22;58439;51.046;13.692;2022-10-18T18:41:31;14.50;99.90
70820;DHT22;58439;51.046;13.692;2022-10-18T18:44:03;14.50;99.90
70820;DHT22;58439;51.046;13.692;2022-10-18T18:46:32;14.50;99.90
70820;DHT22;58439;51.046;13.692;2022-10-18T18:49:05;14.40;99.90
70820;DHT22;58439;51.046;13.692;2022-10-18T18:51:33;14.40;99.90
70820;DHT22;58439;51.046;13.692;2022-10-18T18:54:04;14.40;99.90
70820;DHT22;58439;51.046;13.692;2022-10-18T18:56:31;14.30;99.90
70820;DHT22;58439;51.046;13.692;2022-10-18T18:58:59;14.30;99.90
70820;DHT22;58439;51.046;13.692;2022-10-18T19:01:33;14.30;99.90
70820;DHT22;58439;51.046;13.692;2022-10-18T19:04:03;14.20;99.90
70820;DHT22;58439;51.046;13.692;2022-10-18T19:06:37;14.20;99.90
70820;DHT22;58439;51.046;13.692;2022-10-18T19:09:12;14.20;99.90
70820;DHT22;58439;51.046;13.692;2022-10-18T19:11:50;14.10;99.90
70820;DHT22;58439;51.046;13.692;2022-10-18T19:14:20;14.10;99.90
70820;DHT22;58439;51.046;13.692;2022-10-18T19:16:56;14.10;99.90
70820;DHT22;58439;51.046;13.692;2022-10-18T19:19:27;14.00;99.90
70820;DHT22;58439;51.046;13.692;2022-10-18T19:22:00;14.00;99.90
70820;DHT22;58439;51.046;13.692;2022-10-18T19:24:30;14.00;99.90
70820;DHT22;58439;51.046;13.692;2022-10-18T19:27:03;13.90;99.90
70820;DHT22;58439;51.046;13.692;2022-10-18T19:29:37;13.90;99.90
70820;DHT22;58439;51.046;13.692;2022-10-18T19:32:07;13.90;99.90
70820;DHT22;58439;51.046;13.692;2022-10-18T19:34:38;13.90;99.90
70820;DHT22;58439;51.046;13.692;2022-10-18T19:37:05;13.90;99.90
70820;DHT22;58439;51.046;13.692;2022-10-18T19:39:35;13.90;99.90
70820;DHT22;58439;51.046;13.692;2022-10-18T19:42:05;13.80;99.90
70820;DHT22;58439;51.046;13.692;2022-10-18T19:44:35;13.80;99.90
70820;DHT22;58439;51.046;13.692;2022-10-18T19:47:04;13.70;99.90
70820;DHT22;58439;51.046;13.692;2022-10-18T19:49:33;13.70;99.90
70820;DHT22;58439;51.046;13.692;2022-10-18T19:52:00;13.70;99.90
70820;DHT22;58439;51.046;13.692;2022-10-18T19:54:27;13.60;99.90
70820;DHT22;58439;51.046;13.692;2022-10-18T19:56:54;13.60;99.90
70820;DHT22;58439;51.046;13.692;2022-10-18T19:59:22;13.50;99.90
70820;DHT22;58439;51.046;13.692;2022-10-18T20:01:50;13.50;99.90
70820;DHT22;58439;51.046;13.692;2022-10-18T20:04:17;13.50;99.90
70820;DHT22;58439;51.046;13.692;2022-10-18T20:06:44;13.40;99.90
70820;DHT22;58439;51.046;13.692;2022-10-18T20:09:12;13.50;99.90
70820;DHT22;58439;51.046;13.692;2022-10-18T20:11:45;13.40;99.90
70820;DHT22;58439;51.046;13.692;2022-10-18T20:14:12;13.40;99.90
70820;DHT22;58439;51.046;13.692;2022-10-18T20:16:39;13.40;99.90
70820;DHT22;58439;51.046;13.692;2022-10-18T20:19:06;13.50;99.90
70820;DHT22;58439;51.046;13.692;2022-10-18T20:21:34;13.40;99.90
70820;DHT22;58439;51.046;13.692;2022-10-18T20:24:03;13.40;99.90
70820;DHT22;58439;51.046;13.692;2022-10-18T20:26:32;13.40;99.90